Station Historical Data
Daily Summary for June 18, 2017 Units:  English    Metric   Both
« Previous Day
Next Day »
Daily Weekly Monthly Yearly Custom
  High: Low: Average:
Temperature: 91.9 °F 73.3 °F 82.2 °F
Dew Point: 67.7 °F 52.9 °F 61.2 °F
Humidity: 65 % 39 % 50 %
Wind Speed: 14.0 mph 0.0 mph 1.5 mph
Wind Gust: 21.0 mph - -
Wind:- - SSE
Pressure: 29.80 in 29.72 in -
Precipitation: 0.00 in    
Historical Graphs
 
 
Tabular Data for June 18, 2017
Time Temperature Dew Point Pressure Wind Wind Speed Wind Gust Humidity Rainfall Rate (Hourly) solar
00:00 74.1 °F 61.2 °F 29.80 in Calm   5.0 mph 64 % 0.00 in 0.00 W/m2
00:05 74.2 °F 61.2 °F 29.80 in Calm     64 % 0.00 in 0.00 W/m2
00:10 74.2 °F 61.2 °F 29.80 in Calm   1.0 mph 64 % 0.00 in 0.00 W/m2
00:15 74.2 °F 61.2 °F 29.80 in East 5.0 mph 7.0 mph 64 % 0.00 in 0.00 W/m2
00:20 74.2 °F 61.2 °F 29.79 in Calm   7.0 mph 64 % 0.00 in 0.00 W/m2
00:25 74.2 °F 61.7 °F 29.79 in Calm   5.0 mph 65 % 0.00 in 0.00 W/m2
00:30 74.1 °F 61.6 °F 29.79 in East 1.0 mph 5.0 mph 65 % 0.00 in 0.00 W/m2
00:35 74.0 °F 61.5 °F 29.79 in Calm   6.0 mph 65 % 0.00 in 0.00 W/m2
00:40 74.0 °F 61.1 °F 29.79 in Calm   1.0 mph 64 % 0.00 in 0.00 W/m2
00:45 73.9 °F 61.4 °F 29.79 in Calm     65 % 0.00 in 0.00 W/m2
00:50 73.9 °F 61.4 °F 29.79 in Calm   6.0 mph 65 % 0.00 in 0.00 W/m2
00:55 73.8 °F 61.3 °F 29.78 in East 5.0 mph 6.0 mph 65 % 0.00 in 0.00 W/m2
01:00 73.7 °F 60.8 °F 29.78 in Calm   5.0 mph 64 % 0.00 in 0.00 W/m2
01:05 73.6 °F 60.2 °F 29.78 in Calm     63 % 0.00 in 0.00 W/m2
01:10 73.6 °F 59.8 °F 29.78 in Calm   1.0 mph 62 % 0.00 in 0.00 W/m2
01:15 73.6 °F 59.8 °F 29.78 in Calm     62 % 0.00 in 0.00 W/m2
01:20 73.5 °F 59.7 °F 29.78 in Calm     62 % 0.00 in 0.00 W/m2
01:25 73.5 °F 59.2 °F 29.78 in Calm     61 % 0.00 in 0.00 W/m2
01:30 73.5 °F 59.2 °F 29.78 in Calm     61 % 0.00 in 0.00 W/m2
01:35 73.4 °F 58.7 °F 29.78 in Calm     60 % 0.00 in 0.00 W/m2
01:40 73.4 °F 58.7 °F 29.78 in Calm     60 % 0.00 in 0.00 W/m2
01:45 73.4 °F 58.2 °F 29.78 in Calm   1.0 mph 59 % 0.00 in 0.00 W/m2
01:50 73.3 °F 57.7 °F 29.78 in East 2.0 mph 4.0 mph 58 % 0.00 in 0.00 W/m2
01:55 73.3 °F 57.7 °F 29.78 in ENE 3.0 mph 6.0 mph 58 % 0.00 in 0.00 W/m2
02:00 73.3 °F 57.2 °F 29.78 in ENE 3.0 mph 4.0 mph 57 % 0.00 in 0.00 W/m2
02:05 73.3 °F 56.7 °F 29.78 in Calm   1.0 mph 56 % 0.00 in 0.00 W/m2
02:10 73.4 °F 56.3 °F 29.78 in Calm   3.0 mph 55 % 0.00 in 0.00 W/m2
02:15 73.4 °F 55.8 °F 29.78 in Calm     54 % 0.00 in 0.00 W/m2
02:20 73.5 °F 55.9 °F 29.78 in Calm     54 % 0.00 in 0.00 W/m2
02:25 73.7 °F 55.5 °F 29.78 in Calm     53 % 0.00 in 0.00 W/m2
02:30 73.7 °F 55.5 °F 29.78 in Calm     53 % 0.00 in 0.00 W/m2
02:35 73.9 °F 55.2 °F 29.78 in Calm     52 % 0.00 in 0.00 W/m2
02:40 74.0 °F 55.3 °F 29.78 in Calm   1.0 mph 52 % 0.00 in 0.00 W/m2
02:45 74.0 °F 55.3 °F 29.78 in ENE 3.0 mph 6.0 mph 52 % 0.00 in 0.00 W/m2
02:50 74.0 °F 55.3 °F 29.78 in Calm   8.0 mph 52 % 0.00 in 0.00 W/m2
02:55 74.1 °F 54.8 °F 29.78 in Calm   6.0 mph 51 % 0.00 in 0.00 W/m2
03:00 74.1 °F 55.4 °F 29.78 in Calm   5.0 mph 52 % 0.00 in 0.00 W/m2
03:05 74.1 °F 54.8 °F 29.78 in Calm   6.0 mph 51 % 0.00 in 0.00 W/m2
03:10 74.2 °F 55.5 °F 29.77 in Calm   13.0 mph 52 % 0.00 in 0.00 W/m2
03:15 74.2 °F 54.9 °F 29.77 in Calm   12.0 mph 51 % 0.00 in 0.00 W/m2
03:20 74.1 °F 54.8 °F 29.78 in Calm   5.0 mph 51 % 0.00 in 0.00 W/m2
03:25 74.1 °F 54.8 °F 29.77 in East 10.0 mph 10.0 mph 51 % 0.00 in 0.00 W/m2
03:30 74.1 °F 54.3 °F 29.77 in Calm   8.0 mph 50 % 0.00 in 0.00 W/m2
03:35 74.2 °F 54.4 °F 29.77 in East 2.0 mph 10.0 mph 50 % 0.00 in 0.00 W/m2
03:40 74.1 °F 55.9 °F 29.77 in East 5.0 mph 11.0 mph 53 % 0.00 in 0.00 W/m2
03:45 74.1 °F 55.9 °F 29.77 in East 4.0 mph 12.0 mph 53 % 0.00 in 0.00 W/m2
03:50 74.0 °F 56.3 °F 29.77 in East 7.0 mph 15.0 mph 54 % 0.00 in 0.00 W/m2
03:56 73.9 °F 55.2 °F 29.77 in ESE 4.0 mph 15.0 mph 52 % 0.00 in 0.00 W/m2
04:01 73.8 °F 55.6 °F 29.77 in East 11.0 mph 14.0 mph 53 % 0.00 in 0.00 W/m2
04:06 73.9 °F 55.2 °F 29.77 in ESE 4.0 mph 13.0 mph 52 % 0.00 in 0.00 W/m2
04:11 74.0 °F 54.7 °F 29.77 in East 7.0 mph 12.0 mph 51 % 0.00 in 0.00 W/m2
04:16 74.2 °F 55.5 °F 29.77 in East 5.0 mph 5.0 mph 52 % 0.00 in 0.00 W/m2
04:21 74.3 °F 55.0 °F 29.77 in East 7.0 mph 7.0 mph 51 % 0.00 in 0.00 W/m2
04:26 74.5 °F 54.7 °F 29.77 in East 7.0 mph 9.0 mph 50 % 0.00 in 0.00 W/m2
04:31 74.6 °F 54.2 °F 29.77 in East 5.0 mph 8.0 mph 49 % 0.00 in 0.00 W/m2
04:36 74.8 °F 53.8 °F 29.77 in East 2.0 mph 5.0 mph 48 % 0.00 in 0.00 W/m2
04:41 75.0 °F 54.6 °F 29.77 in East 9.0 mph 10.0 mph 49 % 0.00 in 0.00 W/m2
04:46 75.2 °F 54.2 °F 29.77 in ESE 11.0 mph 11.0 mph 48 % 0.00 in 0.00 W/m2
04:51 75.4 °F 53.8 °F 29.77 in East 6.0 mph 14.0 mph 47 % 0.00 in 0.00 W/m2
04:56 75.6 °F 54.0 °F 29.77 in East 7.0 mph 16.0 mph 47 % 0.00 in 0.00 W/m2
05:01 75.8 °F 53.6 °F 29.77 in ESE 8.0 mph 8.0 mph 46 % 0.00 in 0.00 W/m2
05:06 76.0 °F 53.8 °F 29.77 in East 3.0 mph 3.0 mph 46 % 0.00 in 0.00 W/m2
05:11 76.2 °F 53.9 °F 29.77 in ESE 6.0 mph 6.0 mph 46 % 0.00 in 0.00 W/m2
05:16 76.4 °F 52.9 °F 29.77 in East 7.0 mph 7.0 mph 44 % 0.00 in 0.00 W/m2
05:21 76.7 °F 53.2 °F 29.77 in East 4.0 mph 4.0 mph 44 % 0.00 in 0.00 W/m2
05:26 77.0 °F 54.7 °F 29.77 in Calm     46 % 0.00 in 0.00 W/m2
05:31 77.2 °F 54.2 °F 29.77 in East 14.0 mph 16.0 mph 45 % 0.00 in 0.00 W/m2
05:36 77.2 °F 53.6 °F 29.77 in Calm     44 % 0.00 in 5.00 W/m2
05:41 77.3 °F 53.1 °F 29.77 in ESE 1.0 mph 4.0 mph 43 % 0.00 in 7.00 W/m2
05:46 77.3 °F 53.7 °F 29.77 in ESE 11.0 mph 16.0 mph 44 % 0.00 in 9.00 W/m2
05:51 77.3 °F 53.7 °F 29.77 in ESE 1.0 mph 12.0 mph 44 % 0.00 in 11.00 W/m2
05:56 77.4 °F 53.8 °F 29.77 in Calm   4.0 mph 44 % 0.00 in 12.00 W/m2
06:01 77.3 °F 53.1 °F 29.77 in East 3.0 mph 7.0 mph 43 % 0.00 in 12.00 W/m2
06:06 77.3 °F 53.7 °F 29.78 in ESE 13.0 mph 13.0 mph 44 % 0.00 in 14.00 W/m2
06:07 77.3 °F 53.7 °F 29.77 in ESE 12.0 mph 15.0 mph 44 % 0.00 in 14.00 W/m2
06:12 77.3 °F 54.3 °F 29.77 in SE 1.0 mph 15.0 mph 45 % 0.00 in 19.00 W/m2
06:17 77.2 °F 53.6 °F 29.78 in ESE 5.0 mph 14.0 mph 44 % 0.00 in 32.00 W/m2
06:22 77.1 °F 54.2 °F 29.78 in ESE 6.0 mph 6.0 mph 45 % 0.00 in 47.00 W/m2
06:27 77.0 °F 54.1 °F 29.78 in ENE 3.0 mph 6.0 mph 45 % 0.00 in 58.00 W/m2
06:32 76.9 °F 54.6 °F 29.78 in Calm   13.0 mph 46 % 0.00 in 70.00 W/m2
06:37 76.8 °F 54.5 °F 29.78 in Calm   11.0 mph 46 % 0.00 in 86.00 W/m2
06:42 76.7 °F 55.0 °F 29.78 in Calm   9.0 mph 47 % 0.00 in 105.00 W/m2
06:47 76.6 °F 54.9 °F 29.78 in Calm   7.0 mph 47 % 0.00 in 114.00 W/m2
06:52 76.5 °F 55.4 °F 29.78 in ESE 1.0 mph 19.0 mph 48 % 0.00 in 142.00 W/m2
06:57 76.4 °F 55.3 °F 29.78 in ESE 4.0 mph 21.0 mph 48 % 0.00 in 151.00 W/m2
07:02 76.4 °F 54.7 °F 29.78 in ESE 5.0 mph 9.0 mph 47 % 0.00 in 171.00 W/m2
07:03 76.4 °F 54.7 °F 29.78 in ESE 2.0 mph 9.0 mph 47 % 0.00 in 171.00 W/m2
07:08 76.5 °F 54.8 °F 29.78 in Calm   9.0 mph 47 % 0.00 in 197.00 W/m2
07:13 76.6 °F 54.9 °F 29.78 in East 2.0 mph 12.0 mph 47 % 0.00 in 220.00 W/m2
07:18 76.6 °F 56.0 °F 29.78 in Calm   11.0 mph 49 % 0.00 in 239.00 W/m2
07:23 76.7 °F 55.0 °F 29.78 in ENE 6.0 mph 21.0 mph 47 % 0.00 in 253.00 W/m2
07:28 76.9 °F 56.3 °F 29.78 in Calm   18.0 mph 49 % 0.00 in 265.00 W/m2
07:33 77.0 °F 55.8 °F 29.78 in East 1.0 mph 11.0 mph 48 % 0.00 in 285.00 W/m2
07:38 77.1 °F 55.3 °F 29.78 in East 1.0 mph 20.0 mph 47 % 0.00 in 297.00 W/m2
07:43 77.4 °F 56.2 °F 29.78 in ENE 2.0 mph 9.0 mph 48 % 0.00 in 323.00 W/m2
07:48 77.5 °F 56.9 °F 29.78 in ESE 1.0 mph 11.0 mph 49 % 0.00 in 336.00 W/m2
07:53 77.6 °F 56.4 °F 29.78 in ESE 1.0 mph 8.0 mph 48 % 0.00 in 353.00 W/m2
07:58 77.7 °F 57.0 °F 29.78 in ESE 5.0 mph 12.0 mph 49 % 0.00 in 371.00 W/m2
08:03 77.8 °F 57.1 °F 29.78 in ESE 4.0 mph 9.0 mph 49 % 0.00 in 385.00 W/m2
08:08 77.9 °F 57.2 °F 29.78 in SE 1.0 mph 11.0 mph 49 % 0.00 in 399.00 W/m2
08:13 77.9 °F 57.8 °F 29.78 in ESE 6.0 mph 11.0 mph 50 % 0.00 in 415.00 W/m2
08:18 78.1 °F 58.0 °F 29.78 in Calm   13.0 mph 50 % 0.00 in 429.00 W/m2
08:23 78.1 °F 58.5 °F 29.78 in East 2.0 mph 4.0 mph 51 % 0.00 in 443.00 W/m2
08:28 78.3 °F 58.2 °F 29.78 in Calm   8.0 mph 50 % 0.00 in 461.00 W/m2
08:33 78.5 °F 57.8 °F 29.78 in ESE 2.0 mph 7.0 mph 49 % 0.00 in 478.00 W/m2
08:38 78.7 °F 59.1 °F 29.78 in ESE 5.0 mph 13.0 mph 51 % 0.00 in 490.00 W/m2
08:43 78.9 °F 59.2 °F 29.78 in Calm   12.0 mph 51 % 0.00 in 510.00 W/m2
08:48 79.1 °F 58.3 °F 29.78 in Calm   9.0 mph 49 % 0.00 in 524.00 W/m2
08:53 79.4 °F 59.2 °F 29.78 in ESE 1.0 mph 6.0 mph 50 % 0.00 in 538.00 W/m2
08:58 79.6 °F 59.9 °F 29.78 in Calm   7.0 mph 51 % 0.00 in 550.00 W/m2
09:03 79.8 °F 59.5 °F 29.78 in Calm   11.0 mph 50 % 0.00 in 566.00 W/m2
09:08 79.9 °F 60.2 °F 29.78 in East 2.0 mph 8.0 mph 51 % 0.00 in 580.00 W/m2
09:13 80.0 °F 60.3 °F 29.78 in East 1.0 mph 15.0 mph 51 % 0.00 in 592.00 W/m2
09:18 80.1 °F 60.9 °F 29.78 in SE 8.0 mph 8.0 mph 52 % 0.00 in 608.00 W/m2
09:23 80.2 °F 61.0 °F 29.78 in Calm   8.0 mph 52 % 0.00 in 624.00 W/m2
09:28 80.3 °F 61.6 °F 29.78 in Calm   11.0 mph 53 % 0.00 in 636.00 W/m2
09:34 80.5 °F 60.7 °F 29.78 in Calm   3.0 mph 51 % 0.00 in 650.00 W/m2
09:39 80.7 °F 61.5 °F 29.78 in Calm   4.0 mph 52 % 0.00 in 664.00 W/m2
09:44 80.9 °F 61.1 °F 29.78 in Calm   5.0 mph 51 % 0.00 in 677.00 W/m2
09:49 81.2 °F 61.9 °F 29.78 in East 2.0 mph 6.0 mph 52 % 0.00 in 691.00 W/m2
09:54 81.5 °F 61.7 °F 29.78 in East 2.0 mph 8.0 mph 51 % 0.00 in 703.00 W/m2
09:59 81.8 °F 61.9 °F 29.78 in Calm   8.0 mph 51 % 0.00 in 715.00 W/m2
10:04 82.2 °F 62.3 °F 29.78 in SE 2.0 mph 4.0 mph 51 % 0.00 in 728.00 W/m2
10:09 82.5 °F 62.0 °F 29.78 in Calm   7.0 mph 50 % 0.00 in 740.00 W/m2
10:14 83.0 °F 63.0 °F 29.78 in ESE 1.0 mph 9.0 mph 51 % 0.00 in 754.00 W/m2
10:20 83.3 °F 62.2 °F 29.78 in ENE 3.0 mph 7.0 mph 49 % 0.00 in 763.00 W/m2
10:25 83.8 °F 61.4 °F 29.78 in NE 2.0 mph 4.0 mph 47 % 0.00 in 772.00 W/m2
10:30 84.3 °F 61.3 °F 29.78 in Calm   5.0 mph 46 % 0.00 in 780.00 W/m2
10:35 84.7 °F 62.9 °F 29.78 in WSW 2.0 mph 7.0 mph 48 % 0.00 in 791.00 W/m2
10:40 85.0 °F 62.5 °F 29.78 in Calm   3.0 mph 47 % 0.00 in 802.00 W/m2
10:45 85.3 °F 62.2 °F 29.78 in Calm   2.0 mph 46 % 0.00 in 812.00 W/m2
10:50 85.6 °F 62.5 °F 29.78 in Calm   5.0 mph 46 % 0.00 in 821.00 W/m2
10:53 85.7 °F 63.8 °F 29.78 in Calm   1.0 mph 48 % 0.00 in 828.00 W/m2
10:58 85.9 °F 62.7 °F 29.78 in Calm     46 % 0.00 in 835.00 W/m2
11:03 86.0 °F 61.6 °F 29.78 in Calm   2.0 mph 44 % 0.00 in 842.00 W/m2
11:08 86.2 °F 62.4 °F 29.78 in Calm   1.0 mph 45 % 0.00 in 853.00 W/m2
11:13 86.4 °F 62.6 °F 29.78 in West 3.0 mph 4.0 mph 45 % 0.00 in 858.00 W/m2
11:18 86.5 °F 62.0 °F 29.78 in Calm   1.0 mph 44 % 0.00 in 867.00 W/m2
11:23 86.7 °F 62.8 °F 29.78 in Calm   6.0 mph 45 % 0.00 in 874.00 W/m2
11:28 86.8 °F 63.6 °F 29.78 in Calm   2.0 mph 46 % 0.00 in 881.00 W/m2
11:33 87.0 °F 63.7 °F 29.78 in Calm   6.0 mph 46 % 0.00 in 886.00 W/m2
11:38 87.2 °F 62.0 °F 29.78 in Calm     43 % 0.00 in 893.00 W/m2
11:43 87.3 °F 63.4 °F 29.78 in Calm     45 % 0.00 in 898.00 W/m2
11:48 87.5 °F 63.6 °F 29.78 in Calm     45 % 0.00 in 905.00 W/m2
11:53 87.7 °F 61.8 °F 29.78 in Calm   5.0 mph 42 % 0.00 in 909.00 W/m2
11:58 87.8 °F 63.2 °F 29.78 in Calm     44 % 0.00 in 912.00 W/m2
12:03 88.0 °F 63.4 °F 29.78 in Calm   1.0 mph 44 % 0.00 in 918.00 W/m2
12:08 88.3 °F 64.9 °F 29.78 in Calm   2.0 mph 46 % 0.00 in 921.00 W/m2
12:13 88.5 °F 63.8 °F 29.78 in Calm   3.0 mph 44 % 0.00 in 923.00 W/m2
12:18 88.7 °F 62.7 °F 29.78 in Calm   4.0 mph 42 % 0.00 in 926.00 W/m2
12:23 89.0 °F 62.3 °F 29.78 in WSW 4.0 mph 6.0 mph 41 % 0.00 in 928.00 W/m2
12:28 89.2 °F 64.5 °F 29.78 in WSW 3.0 mph 4.0 mph 44 % 0.00 in 933.00 W/m2
12:33 89.5 °F 65.4 °F 29.78 in Calm   3.0 mph 45 % 0.00 in 935.00 W/m2
12:38 89.5 °F 64.7 °F 29.77 in Calm   6.0 mph 44 % 0.00 in 937.00 W/m2
12:43 89.6 °F 64.2 °F 29.77 in Calm   6.0 mph 43 % 0.00 in 935.00 W/m2
12:48 89.6 °F 65.5 °F 29.77 in Calm   3.0 mph 45 % 0.00 in 939.00 W/m2
12:53 89.9 °F 65.7 °F 29.77 in Calm   1.0 mph 45 % 0.00 in 937.00 W/m2
12:58 90.2 °F 65.4 °F 29.77 in NW 3.0 mph 3.0 mph 44 % 0.00 in 939.00 W/m2
13:03 90.3 °F 64.8 °F 29.77 in West 1.0 mph 6.0 mph 43 % 0.00 in 939.00 W/m2
13:08 90.5 °F 65.6 °F 29.76 in Calm   5.0 mph 44 % 0.00 in 939.00 W/m2
13:13 90.8 °F 64.6 °F 29.76 in Calm   6.0 mph 42 % 0.00 in 935.00 W/m2
13:18 91.2 °F 64.9 °F 29.76 in WNW 3.0 mph 4.0 mph 42 % 0.00 in 935.00 W/m2
13:23 91.5 °F 65.9 °F 29.76 in WNW 3.0 mph 5.0 mph 43 % 0.00 in 935.00 W/m2
13:28 91.3 °F 65.0 °F 29.76 in Calm   4.0 mph 42 % 0.00 in 933.00 W/m2
13:33 91.4 °F 63.7 °F 29.76 in Calm     40 % 0.00 in 932.00 W/m2
13:38 91.6 °F 65.3 °F 29.76 in Calm   4.0 mph 42 % 0.00 in 930.00 W/m2
13:43 91.8 °F 65.5 °F 29.76 in NW 1.0 mph 4.0 mph 42 % 0.00 in 926.00 W/m2
13:48 91.8 °F 64.8 °F 29.76 in Calm   2.0 mph 41 % 0.00 in 923.00 W/m2
13:53 91.8 °F 64.8 °F 29.76 in NW 2.0 mph 3.0 mph 41 % 0.00 in 918.00 W/m2
13:58 91.6 °F 64.6 °F 29.76 in Calm   4.0 mph 41 % 0.00 in 912.00 W/m2
14:03 91.6 °F 63.9 °F 29.75 in SW 4.0 mph 6.0 mph 40 % 0.00 in 911.00 W/m2
14:08 91.7 °F 64.7 °F 29.75 in Calm   3.0 mph 41 % 0.00 in 907.00 W/m2
14:13 91.8 °F 64.1 °F 29.75 in Calm   3.0 mph 40 % 0.00 in 900.00 W/m2
14:18 91.7 °F 64.0 °F 29.75 in Calm     40 % 0.00 in 895.00 W/m2
14:23 91.6 °F 63.9 °F 29.75 in Calm   6.0 mph 40 % 0.00 in 888.00 W/m2
14:28 91.5 °F 63.8 °F 29.75 in Calm   3.0 mph 40 % 0.00 in 882.00 W/m2
14:33 91.6 °F 63.9 °F 29.75 in Calm   8.0 mph 40 % 0.00 in 875.00 W/m2
14:38 91.7 °F 64.7 °F 29.75 in NNW 2.0 mph 5.0 mph 41 % 0.00 in 868.00 W/m2
14:43 91.6 °F 63.9 °F 29.75 in Calm   1.0 mph 40 % 0.00 in 861.00 W/m2
14:49 91.6 °F 63.9 °F 29.75 in West 2.0 mph 7.0 mph 40 % 0.00 in 854.00 W/m2
14:54 91.7 °F 64.0 °F 29.75 in Calm   6.0 mph 40 % 0.00 in 847.00 W/m2
14:59 91.7 °F 64.0 °F 29.75 in Calm   5.0 mph 40 % 0.00 in 838.00 W/m2
15:04 91.6 °F 63.9 °F 29.75 in Calm   4.0 mph 40 % 0.00 in 830.00 W/m2
15:09 91.6 °F 63.9 °F 29.75 in Calm   1.0 mph 40 % 0.00 in 821.00 W/m2
15:14 91.6 °F 63.2 °F 29.75 in West 1.0 mph 5.0 mph 39 % 0.00 in 814.00 W/m2
15:19 91.6 °F 63.9 °F 29.75 in Calm     40 % 0.00 in 802.00 W/m2
15:24 91.7 °F 63.2 °F 29.75 in Calm   5.0 mph 39 % 0.00 in 793.00 W/m2
15:29 91.8 °F 64.1 °F 29.75 in Calm   5.0 mph 40 % 0.00 in 782.00 W/m2
15:34 91.8 °F 63.3 °F 29.75 in Calm     39 % 0.00 in 773.00 W/m2
15:39 91.8 °F 64.1 °F 29.74 in Calm   4.0 mph 40 % 0.00 in 763.00 W/m2
15:44 91.7 °F 64.0 °F 29.74 in Calm     40 % 0.00 in 752.00 W/m2
15:49 91.7 °F 64.7 °F 29.74 in Calm   6.0 mph 41 % 0.00 in 742.00 W/m2
15:54 91.7 °F 64.0 °F 29.74 in Calm   7.0 mph 40 % 0.00 in 729.00 W/m2
15:59 91.8 °F 64.1 °F 29.74 in Calm   6.0 mph 40 % 0.00 in 719.00 W/m2
16:04 91.8 °F 64.1 °F 29.74 in Calm     40 % 0.00 in 703.00 W/m2
16:09 91.8 °F 64.1 °F 29.74 in West 2.0 mph 6.0 mph 40 % 0.00 in 696.00 W/m2
16:14 91.8 °F 63.3 °F 29.74 in West 1.0 mph 6.0 mph 39 % 0.00 in 684.00 W/m2
16:19 91.9 °F 64.2 °F 29.74 in WSW 2.0 mph 5.0 mph 40 % 0.00 in 671.00 W/m2
16:24 91.9 °F 63.4 °F 29.74 in Calm     39 % 0.00 in 661.00 W/m2
16:29 91.8 °F 64.1 °F 29.74 in WSW 7.0 mph 7.0 mph 40 % 0.00 in 649.00 W/m2
16:34 91.8 °F 64.1 °F 29.74 in WSW 5.0 mph 5.0 mph 40 % 0.00 in 635.00 W/m2
16:39 91.8 °F 64.1 °F 29.74 in NW 5.0 mph 5.0 mph 40 % 0.00 in 622.00 W/m2
16:44 91.8 °F 64.1 °F 29.74 in NW 3.0 mph 7.0 mph 40 % 0.00 in 608.00 W/m2
16:49 91.7 °F 64.0 °F 29.74 in Calm   5.0 mph 40 % 0.00 in 594.00 W/m2
16:54 91.7 °F 64.0 °F 29.74 in WSW 6.0 mph 7.0 mph 40 % 0.00 in 580.00 W/m2
16:59 91.7 °F 64.7 °F 29.74 in WSW 1.0 mph 4.0 mph 41 % 0.00 in 564.00 W/m2
17:04 91.7 °F 63.2 °F 29.74 in West 4.0 mph 5.0 mph 39 % 0.00 in 548.00 W/m2
17:09 91.7 °F 64.0 °F 29.74 in NW 4.0 mph 9.0 mph 40 % 0.00 in 533.00 W/m2
17:14 91.6 °F 63.9 °F 29.74 in WNW 2.0 mph 5.0 mph 40 % 0.00 in 517.00 W/m2
17:19 91.6 °F 64.6 °F 29.73 in West 5.0 mph 7.0 mph 41 % 0.00 in 499.00 W/m2
17:24 91.6 °F 63.9 °F 29.73 in Calm   6.0 mph 40 % 0.00 in 487.00 W/m2
17:29 91.5 °F 64.5 °F 29.73 in WSW 2.0 mph 6.0 mph 41 % 0.00 in 473.00 W/m2
17:34 91.5 °F 63.8 °F 29.73 in WSW 1.0 mph 4.0 mph 40 % 0.00 in 459.00 W/m2
17:39 91.4 °F 65.1 °F 29.73 in West 6.0 mph 6.0 mph 42 % 0.00 in 441.00 W/m2
17:44 91.3 °F 63.6 °F 29.73 in West 3.0 mph 7.0 mph 40 % 0.00 in 427.00 W/m2
17:49 91.3 °F 63.6 °F 29.73 in Calm   4.0 mph 40 % 0.00 in 411.00 W/m2
17:54 91.2 °F 64.9 °F 29.73 in West 5.0 mph 7.0 mph 42 % 0.00 in 396.00 W/m2
17:59 91.2 °F 64.2 °F 29.73 in WSW 1.0 mph 5.0 mph 41 % 0.00 in 381.00 W/m2
18:04 91.1 °F 64.1 °F 29.73 in Calm   3.0 mph 41 % 0.00 in 366.00 W/m2
18:09 91.0 °F 64.7 °F 29.73 in WSW 1.0 mph 5.0 mph 42 % 0.00 in 348.00 W/m2
18:14 90.9 °F 65.3 °F 29.73 in WSW 1.0 mph 4.0 mph 43 % 0.00 in 334.00 W/m2
18:20 90.8 °F 65.9 °F 29.73 in West 4.0 mph 5.0 mph 44 % 0.00 in 316.00 W/m2
18:25 90.6 °F 66.4 °F 29.73 in West 1.0 mph 4.0 mph 45 % 0.00 in 304.00 W/m2
18:30 90.3 °F 66.1 °F 29.73 in Calm   4.0 mph 45 % 0.00 in 290.00 W/m2
18:35 90.0 °F 66.5 °F 29.73 in West 1.0 mph 4.0 mph 46 % 0.00 in 274.00 W/m2
18:40 89.7 °F 66.2 °F 29.73 in Calm   3.0 mph 46 % 0.00 in 258.00 W/m2
18:45 89.3 °F 65.8 °F 29.73 in Calm   2.0 mph 46 % 0.00 in 241.00 W/m2
18:50 88.9 °F 66.1 °F 29.73 in Calm   3.0 mph 47 % 0.00 in 225.00 W/m2
18:55 88.5 °F 66.3 °F 29.73 in West 1.0 mph 3.0 mph 48 % 0.00 in 209.00 W/m2
19:00 88.0 °F 66.5 °F 29.73 in West 2.0 mph 4.0 mph 49 % 0.00 in 195.00 W/m2
19:05 87.6 °F 66.7 °F 29.73 in West 2.0 mph 3.0 mph 50 % 0.00 in 183.00 W/m2
19:10 87.3 °F 67.0 °F 29.73 in Calm   3.0 mph 51 % 0.00 in 165.00 W/m2
19:15 86.9 °F 66.6 °F 29.73 in West 1.0 mph 4.0 mph 51 % 0.00 in 148.00 W/m2
19:20 86.5 °F 66.8 °F 29.72 in Calm   2.0 mph 52 % 0.00 in 130.00 W/m2
19:25 86.2 °F 67.1 °F 29.72 in Calm   2.0 mph 53 % 0.00 in 113.00 W/m2
19:30 85.8 °F 66.7 °F 29.72 in Calm   2.0 mph 53 % 0.00 in 95.00 W/m2
19:35 85.4 °F 67.4 °F 29.72 in Calm   1.0 mph 55 % 0.00 in 79.00 W/m2
19:40 85.2 °F 67.2 °F 29.72 in Calm     55 % 0.00 in 65.00 W/m2
19:45 84.9 °F 67.5 °F 29.73 in Calm     56 % 0.00 in 54.00 W/m2
19:50 84.6 °F 67.7 °F 29.73 in Calm     57 % 0.00 in 42.00 W/m2
19:55 84.2 °F 67.3 °F 29.73 in Calm     57 % 0.00 in 33.00 W/m2
20:00 83.9 °F 67.1 °F 29.73 in Calm     57 % 0.00 in 26.00 W/m2
20:05 83.5 °F 67.2 °F 29.73 in Calm     58 % 0.00 in 21.00 W/m2
20:10 83.1 °F 66.8 °F 29.74 in Calm     58 % 0.00 in 19.00 W/m2
20:15 82.7 °F 66.4 °F 29.74 in Calm     58 % 0.00 in 18.00 W/m2
20:20 82.4 °F 65.7 °F 29.74 in Calm     57 % 0.00 in 16.00 W/m2
20:25 82.2 °F 65.5 °F 29.74 in Calm     57 % 0.00 in 12.00 W/m2
20:30 81.9 °F 65.2 °F 29.74 in Calm     57 % 0.00 in 11.00 W/m2
20:35 81.7 °F 65.0 °F 29.74 in Calm     57 % 0.00 in 9.00 W/m2
20:40 81.4 °F 64.7 °F 29.74 in Calm     57 % 0.00 in 5.00 W/m2
20:45 81.2 °F 64.5 °F 29.74 in Calm     57 % 0.00 in 0.00 W/m2
20:50 81.0 °F 64.3 °F 29.74 in Calm     57 % 0.00 in 0.00 W/m2
20:55 80.7 °F 64.1 °F 29.74 in Calm     57 % 0.00 in 0.00 W/m2
21:00 80.5 °F 63.9 °F 29.74 in Calm     57 % 0.00 in 0.00 W/m2
21:05 80.3 °F 63.7 °F 29.74 in Calm     57 % 0.00 in 0.00 W/m2
21:10 80.2 °F 63.6 °F 29.74 in Calm     57 % 0.00 in 0.00 W/m2
21:15 80.2 °F 63.6 °F 29.74 in Calm     57 % 0.00 in 0.00 W/m2
21:20 80.1 °F 63.5 °F 29.74 in Calm     57 % 0.00 in 0.00 W/m2
21:25 80.0 °F 63.4 °F 29.74 in Calm     57 % 0.00 in 0.00 W/m2
21:30 80.0 °F 63.4 °F 29.74 in Calm     57 % 0.00 in 0.00 W/m2
21:35 79.9 °F 62.8 °F 29.75 in Calm     56 % 0.00 in 0.00 W/m2
21:40 79.9 °F 63.3 °F 29.75 in Calm     57 % 0.00 in 0.00 W/m2
21:45 79.9 °F 63.3 °F 29.75 in Calm     57 % 0.00 in 0.00 W/m2
21:50 79.8 °F 63.2 °F 29.75 in Calm     57 % 0.00 in 0.00 W/m2
21:56 79.8 °F 63.2 °F 29.75 in Calm     57 % 0.00 in 0.00 W/m2
22:01 79.8 °F 63.2 °F 29.75 in Calm     57 % 0.00 in 0.00 W/m2
22:06 79.7 °F 63.1 °F 29.75 in Calm     57 % 0.00 in 0.00 W/m2
22:11 79.6 °F 63.0 °F 29.75 in Calm     57 % 0.00 in 0.00 W/m2
22:13 79.6 °F 63.5 °F 29.75 in Calm     58 % 0.00 in 0.00 W/m2
22:18 79.6 °F 63.5 °F 29.75 in Calm     58 % 0.00 in 0.00 W/m2
22:23 79.5 °F 63.9 °F 29.75 in Calm     59 % 0.00 in 0.00 W/m2
22:28 79.4 °F 63.8 °F 29.75 in Calm     59 % 0.00 in 0.00 W/m2
22:33 79.3 °F 63.7 °F 29.75 in Calm     59 % 0.00 in 0.00 W/m2
22:38 79.3 °F 63.7 °F 29.75 in Calm     59 % 0.00 in 0.00 W/m2
22:43 79.3 °F 63.7 °F 29.75 in Calm     59 % 0.00 in 0.00 W/m2
22:48 79.2 °F 63.7 °F 29.75 in Calm     59 % 0.00 in 0.00 W/m2
22:53 79.2 °F 63.7 °F 29.75 in Calm     59 % 0.00 in 0.00 W/m2
22:58 79.2 °F 64.1 °F 29.75 in Calm     60 % 0.00 in 0.00 W/m2
23:03 79.1 °F 64.0 °F 29.75 in Calm     60 % 0.00 in 0.00 W/m2
23:08 79.1 °F 64.0 °F 29.75 in Calm     60 % 0.00 in 0.00 W/m2
23:13 78.8 °F 63.8 °F 29.75 in Calm     60 % 0.00 in 0.00 W/m2
23:18 78.6 °F 64.0 °F 29.75 in Calm     61 % 0.00 in 0.00 W/m2
23:23 78.4 °F 63.8 °F 29.75 in Calm     61 % 0.00 in 0.00 W/m2
23:28 78.4 °F 64.3 °F 29.75 in Calm     62 % 0.00 in 0.00 W/m2
23:33 78.4 °F 64.3 °F 29.75 in Calm   6.0 mph 62 % 0.00 in 0.00 W/m2
23:38 78.3 °F 64.2 °F 29.75 in Calm     62 % 0.00 in 0.00 W/m2
23:43 78.3 °F 64.7 °F 29.75 in Calm     63 % 0.00 in 0.00 W/m2
23:48 78.3 °F 64.7 °F 29.75 in Calm     63 % 0.00 in 0.00 W/m2
23:53 78.2 °F 64.6 °F 29.74 in Calm     63 % 0.00 in 0.00 W/m2
23:58 78.2 °F 64.6 °F 29.75 in Calm     63 % 0.00 in 0.00 W/m2
Juneau County Weather
Compliments of Weather Underground - 4.5 mb
 WU-history PHP script courtesy of   Juneau County Weather.
powered by Cumulus v1.9.3 (1059)
Ambient Weather VWS v14.00
Top Contact Website Map Copyright © 2007 - 2018 Foresthillweather.com Never base important decisions on this or any weather information obtained from the Internet